sensor_id;sensor_type;location;lat;lon;timestamp;temperature;humidity
39067;DHT22;24821;51.988;6.020;2023-03-13T00:00:17;10.20;99.90
39067;DHT22;24821;51.988;6.020;2023-03-13T00:02:43;10.20;99.90
39067;DHT22;24821;51.988;6.020;2023-03-13T00:05:10;10.20;99.90
39067;DHT22;24821;51.988;6.020;2023-03-13T00:07:36;10.20;99.90
39067;DHT22;24821;51.988;6.020;2023-03-13T00:10:01;10.20;99.90
39067;DHT22;24821;51.988;6.020;2023-03-13T00:12:27;10.20;99.90
39067;DHT22;24821;51.988;6.020;2023-03-13T00:14:52;10.20;99.90
39067;DHT22;24821;51.988;6.020;2023-03-13T00:17:18;10.10;99.90
39067;DHT22;24821;51.988;6.020;2023-03-13T00:19:44;10.10;99.90
39067;DHT22;24821;51.988;6.020;2023-03-13T00:22:09;10.10;99.90
39067;DHT22;24821;51.988;6.020;2023-03-13T00:24:35;10.10;99.90
39067;DHT22;24821;51.988;6.020;2023-03-13T00:27:00;10.20;99.90
39067;DHT22;24821;51.988;6.020;2023-03-13T00:29:28;10.10;99.90
39067;DHT22;24821;51.988;6.020;2023-03-13T00:31:54;10.20;99.90
39067;DHT22;24821;51.988;6.020;2023-03-13T00:34:19;10.10;99.90
39067;DHT22;24821;51.988;6.020;2023-03-13T00:36:45;10.20;99.90
39067;DHT22;24821;51.988;6.020;2023-03-13T00:39:11;10.10;99.90
39067;DHT22;24821;51.988;6.020;2023-03-13T00:41:36;10.10;99.90
39067;DHT22;24821;51.988;6.020;2023-03-13T00:44:02;10.10;99.90
39067;DHT22;24821;51.988;6.020;2023-03-13T00:46:29;10.10;99.90
39067;DHT22;24821;51.988;6.020;2023-03-13T00:48:55;10.10;99.90
39067;DHT22;24821;51.988;6.020;2023-03-13T00:51:23;10.10;99.90
39067;DHT22;24821;51.988;6.020;2023-03-13T00:53:48;10.10;99.90
39067;DHT22;24821;51.988;6.020;2023-03-13T00:56:16;10.10;99.90
39067;DHT22;24821;51.988;6.020;2023-03-13T00:58:43;10.10;99.90
39067;DHT22;24821;51.988;6.020;2023-03-13T01:01:26;10.10;99.90
39067;DHT22;24821;51.988;6.020;2023-03-13T01:03:54;10.10;99.90
39067;DHT22;24821;51.988;6.020;2023-03-13T01:06:28;10.00;99.90
39067;DHT22;24821;51.988;6.020;2023-03-13T01:08:54;10.00;99.90
39067;DHT22;24821;51.988;6.020;2023-03-13T01:11:25;9.90;99.90
39067;DHT22;24821;51.988;6.020;2023-03-13T01:13:57;10.00;99.90
39067;DHT22;24821;51.988;6.020;2023-03-13T01:16:25;10.00;99.90
39067;DHT22;24821;51.988;6.020;2023-03-13T01:18:53;10.00;99.90
39067;DHT22;24821;51.988;6.020;2023-03-13T01:21:21;10.00;99.90
39067;DHT22;24821;51.988;6.020;2023-03-13T01:23:48;10.00;99.90
39067;DHT22;24821;51.988;6.020;2023-03-13T01:26:14;9.90;99.90
39067;DHT22;24821;51.988;6.020;2023-03-13T01:28:39;10.00;99.90
39067;DHT22;24821;51.988;6.020;2023-03-13T01:31:16;9.90;99.90
39067;DHT22;24821;51.988;6.020;2023-03-13T01:33:44;10.00;99.90
39067;DHT22;24821;51.988;6.020;2023-03-13T01:36:10;10.00;99.90
39067;DHT22;24821;51.988;6.020;2023-03-13T01:38:36;9.90;99.90
39067;DHT22;24821;51.988;6.020;2023-03-13T01:41:03;10.00;99.90
39067;DHT22;24821;51.988;6.020;2023-03-13T01:43:34;10.00;99.90
39067;DHT22;24821;51.988;6.020;2023-03-13T01:46:08;10.00;99.90
39067;DHT22;24821;51.988;6.020;2023-03-13T01:51:03;10.00;99.90
39067;DHT22;24821;51.988;6.020;2023-03-13T01:53:33;10.10;99.90
39067;DHT22;24821;51.988;6.020;2023-03-13T01:56:00;10.10;99.90
39067;DHT22;24821;51.988;6.020;2023-03-13T01:58:28;10.10;99.90
39067;DHT22;24821;51.988;6.020;2023-03-13T02:00:54;10.10;99.90
39067;DHT22;24821;51.988;6.020;2023-03-13T02:03:21;10.10;99.90
39067;DHT22;24821;51.988;6.020;2023-03-13T02:05:48;10.10;99.90
39067;DHT22;24821;51.988;6.020;2023-03-13T02:08:24;10.10;99.90
39067;DHT22;24821;51.988;6.020;2023-03-13T02:11:01;10.20;99.90
39067;DHT22;24821;51.988;6.020;2023-03-13T02:13:29;10.20;99.90
39067;DHT22;24821;51.988;6.020;2023-03-13T02:15:56;10.20;99.90
39067;DHT22;24821;51.988;6.020;2023-03-13T02:18:21;10.20;99.90
39067;DHT22;24821;51.988;6.020;2023-03-13T02:20:48;10.30;99.90
39067;DHT22;24821;51.988;6.020;2023-03-13T02:23:38;10.30;99.90
39067;DHT22;24821;51.988;6.020;2023-03-13T02:26:06;10.30;99.90
39067;DHT22;24821;51.988;6.020;2023-03-13T02:28:34;10.30;99.90
39067;DHT22;24821;51.988;6.020;2023-03-13T02:31:00;10.40;99.90
39067;DHT22;24821;51.988;6.020;2023-03-13T02:33:29;10.50;99.90
39067;DHT22;24821;51.988;6.020;2023-03-13T02:35:56;10.50;99.90
39067;DHT22;24821;51.988;6.020;2023-03-13T02:38:24;10.50;99.90
39067;DHT22;24821;51.988;6.020;2023-03-13T02:40:51;10.50;99.90
39067;DHT22;24821;51.988;6.020;2023-03-13T02:43:22;10.60;99.90
39067;DHT22;24821;51.988;6.020;2023-03-13T02:46:10;10.60;99.90
39067;DHT22;24821;51.988;6.020;2023-03-13T02:48:39;10.70;99.90
39067;DHT22;24821;51.988;6.020;2023-03-13T02:51:09;10.70;99.90
39067;DHT22;24821;51.988;6.020;2023-03-13T02:53:36;10.70;99.90
39067;DHT22;24821;51.988;6.020;2023-03-13T02:56:02;10.70;99.90
39067;DHT22;24821;51.988;6.020;2023-03-13T02:58:37;10.80;99.90
39067;DHT22;24821;51.988;6.020;2023-03-13T03:01:02;10.80;99.90
39067;DHT22;24821;51.988;6.020;2023-03-13T03:03:33;10.80;99.90
39067;DHT22;24821;51.988;6.020;2023-03-13T03:05:59;10.80;99.90
39067;DHT22;24821;51.988;6.020;2023-03-13T03:08:25;10.90;99.90
39067;DHT22;24821;51.988;6.020;2023-03-13T03:10:50;10.90;99.90
39067;DHT22;24821;51.988;6.020;2023-03-13T03:13:16;10.90;99.90
39067;DHT22;24821;51.988;6.020;2023-03-13T03:15:41;10.90;99.90
39067;DHT22;24821;51.988;6.020;2023-03-13T03:18:07;11.00;99.90
39067;DHT22;24821;51.988;6.020;2023-03-13T03:20:32;11.00;99.90
39067;DHT22;24821;51.988;6.020;2023-03-13T03:22:58;11.10;99.90
39067;DHT22;24821;51.988;6.020;2023-03-13T03:25:23;11.10;99.90
39067;DHT22;24821;51.988;6.020;2023-03-13T03:27:49;11.10;99.90
39067;DHT22;24821;51.988;6.020;2023-03-13T03:30:14;11.20;99.90
39067;DHT22;24821;51.988;6.020;2023-03-13T03:32:40;11.20;99.90
39067;DHT22;24821;51.988;6.020;2023-03-13T03:35:06;11.20;99.90
39067;DHT22;24821;51.988;6.020;2023-03-13T03:37:31;11.30;99.90
39067;DHT22;24821;51.988;6.020;2023-03-13T03:39:57;11.30;99.90
39067;DHT22;24821;51.988;6.020;2023-03-13T03:42:23;11.40;99.90
39067;DHT22;24821;51.988;6.020;2023-03-13T03:44:48;11.40;99.90
39067;DHT22;24821;51.988;6.020;2023-03-13T03:47:14;11.40;99.90
39067;DHT22;24821;51.988;6.020;2023-03-13T03:49:39;11.50;99.90
39067;DHT22;24821;51.988;6.020;2023-03-13T03:52:05;11.50;99.90
39067;DHT22;24821;51.988;6.020;2023-03-13T03:54:31;11.50;99.90
39067;DHT22;24821;51.988;6.020;2023-03-13T03:56:56;11.60;99.90
39067;DHT22;24821;51.988;6.020;2023-03-13T03:59:22;11.60;99.90
39067;DHT22;24821;51.988;6.020;2023-03-13T04:01:47;11.60;99.90
39067;DHT22;24821;51.988;6.020;2023-03-13T04:04:13;11.60;99.90
39067;DHT22;24821;51.988;6.020;2023-03-13T04:06:38;11.60;99.90
39067;DHT22;24821;51.988;6.020;2023-03-13T04:09:04;11.70;99.90
39067;DHT22;24821;51.988;6.020;2023-03-13T04:11:30;11.70;99.90
39067;DHT22;24821;51.988;6.020;2023-03-13T04:13:55;11.70;99.90
39067;DHT22;24821;51.988;6.020;2023-03-13T04:16:21;11.70;99.90
39067;DHT22;24821;51.988;6.020;2023-03-13T04:18:46;11.70;99.90
39067;DHT22;24821;51.988;6.020;2023-03-13T04:21:12;11.80;99.90
39067;DHT22;24821;51.988;6.020;2023-03-13T04:23:37;11.80;99.90
39067;DHT22;24821;51.988;6.020;2023-03-13T04:26:03;11.80;99.90
39067;DHT22;24821;51.988;6.020;2023-03-13T04:28:29;11.80;99.90
39067;DHT22;24821;51.988;6.020;2023-03-13T04:30:54;11.90;99.90
39067;DHT22;24821;51.988;6.020;2023-03-13T04:33:25;11.90;99.90
39067;DHT22;24821;51.988;6.020;2023-03-13T04:35:51;11.90;99.90
39067;DHT22;24821;51.988;6.020;2023-03-13T04:38:17;12.00;99.90
39067;DHT22;24821;51.988;6.020;2023-03-13T04:40:42;12.00;99.90
39067;DHT22;24821;51.988;6.020;2023-03-13T04:43:08;12.00;99.90
39067;DHT22;24821;51.988;6.020;2023-03-13T04:45:34;12.00;99.90
39067;DHT22;24821;51.988;6.020;2023-03-13T04:47:59;12.00;99.90
39067;DHT22;24821;51.988;6.020;2023-03-13T04:50:25;12.10;99.90
39067;DHT22;24821;51.988;6.020;2023-03-13T04:52:50;12.10;99.90
39067;DHT22;24821;51.988;6.020;2023-03-13T04:55:16;12.20;99.90
39067;DHT22;24821;51.988;6.020;2023-03-13T04:57:42;12.20;99.90
39067;DHT22;24821;51.988;6.020;2023-03-13T05:00:08;12.20;99.90
39067;DHT22;24821;51.988;6.020;2023-03-13T05:02:35;12.20;99.90
39067;DHT22;24821;51.988;6.020;2023-03-13T05:05:00;12.30;99.90
39067;DHT22;24821;51.988;6.020;2023-03-13T05:07:26;12.30;99.90
39067;DHT22;24821;51.988;6.020;2023-03-13T05:09:51;12.40;99.90
39067;DHT22;24821;51.988;6.020;2023-03-13T05:12:17;12.40;99.90
39067;DHT22;24821;51.988;6.020;2023-03-13T05:14:42;12.40;99.90
39067;DHT22;24821;51.988;6.020;2023-03-13T05:17:08;12.40;99.90
39067;DHT22;24821;51.988;6.020;2023-03-13T05:19:35;12.40;99.90
39067;DHT22;24821;51.988;6.020;2023-03-13T05:22:00;12.50;99.90
39067;DHT22;24821;51.988;6.020;2023-03-13T05:24:26;12.50;99.90
39067;DHT22;24821;51.988;6.020;2023-03-13T05:26:52;12.50;99.90
39067;DHT22;24821;51.988;6.020;2023-03-13T05:29:17;12.50;99.90
39067;DHT22;24821;51.988;6.020;2023-03-13T05:31:43;12.60;99.90
39067;DHT22;24821;51.988;6.020;2023-03-13T05:34:08;12.50;99.90
39067;DHT22;24821;51.988;6.020;2023-03-13T05:36:34;12.60;99.90
39067;DHT22;24821;51.988;6.020;2023-03-13T05:38:59;12.70;99.90
39067;DHT22;24821;51.988;6.020;2023-03-13T05:41:25;12.70;99.90
39067;DHT22;24821;51.988;6.020;2023-03-13T05:43:51;12.60;99.90
39067;DHT22;24821;51.988;6.020;2023-03-13T05:46:16;12.70;99.90
39067;DHT22;24821;51.988;6.020;2023-03-13T05:48:42;12.70;99.90
39067;DHT22;24821;51.988;6.020;2023-03-13T05:51:09;12.70;99.90
39067;DHT22;24821;51.988;6.020;2023-03-13T05:53:35;12.70;99.90
39067;DHT22;24821;51.988;6.020;2023-03-13T05:56:01;12.80;99.90
39067;DHT22;24821;51.988;6.020;2023-03-13T05:58:26;12.80;99.90
39067;DHT22;24821;51.988;6.020;2023-03-13T06:00:52;12.80;99.90
39067;DHT22;24821;51.988;6.020;2023-03-13T06:03:17;12.80;99.90
39067;DHT22;24821;51.988;6.020;2023-03-13T06:05:43;12.80;99.90
39067;DHT22;24821;51.988;6.020;2023-03-13T06:08:10;12.90;99.90
39067;DHT22;24821;51.988;6.020;2023-03-13T06:10:35;12.90;99.90
39067;DHT22;24821;51.988;6.020;2023-03-13T06:13:01;12.90;99.90
39067;DHT22;24821;51.988;6.020;2023-03-13T06:15:26;12.90;99.90
39067;DHT22;24821;51.988;6.020;2023-03-13T06:17:52;13.00;99.90
39067;DHT22;24821;51.988;6.020;2023-03-13T06:20:17;13.00;99.90
39067;DHT22;24821;51.988;6.020;2023-03-13T06:22:43;13.00;99.90
39067;DHT22;24821;51.988;6.020;2023-03-13T06:25:09;13.10;99.90
39067;DHT22;24821;51.988;6.020;2023-03-13T06:27:34;13.10;99.90
39067;DHT22;24821;51.988;6.020;2023-03-13T06:30:00;13.10;99.90
39067;DHT22;24821;51.988;6.020;2023-03-13T06:32:27;13.10;99.90
39067;DHT22;24821;51.988;6.020;2023-03-13T06:34:52;13.10;99.90
39067;DHT22;24821;51.988;6.020;2023-03-13T06:37:18;13.20;99.90
39067;DHT22;24821;51.988;6.020;2023-03-13T06:39:44;13.20;99.90
39067;DHT22;24821;51.988;6.020;2023-03-13T06:42:09;13.20;99.90
39067;DHT22;24821;51.988;6.020;2023-03-13T06:44:35;13.20;99.90
39067;DHT22;24821;51.988;6.020;2023-03-13T06:47:01;13.20;99.90
39067;DHT22;24821;51.988;6.020;2023-03-13T06:49:26;13.30;99.90
39067;DHT22;24821;51.988;6.020;2023-03-13T06:51:52;13.30;99.90
39067;DHT22;24821;51.988;6.020;2023-03-13T06:54:17;13.30;99.90
39067;DHT22;24821;51.988;6.020;2023-03-13T06:56:43;13.30;99.90
39067;DHT22;24821;51.988;6.020;2023-03-13T06:59:08;13.40;99.90
39067;DHT22;24821;51.988;6.020;2023-03-13T07:01:34;13.40;99.90
39067;DHT22;24821;51.988;6.020;2023-03-13T07:04:00;13.40;99.90
39067;DHT22;24821;51.988;6.020;2023-03-13T07:06:25;13.40;99.90
39067;DHT22;24821;51.988;6.020;2023-03-13T07:08:51;13.40;99.90
39067;DHT22;24821;51.988;6.020;2023-03-13T07:11:16;13.50;99.90
39067;DHT22;24821;51.988;6.020;2023-03-13T07:13:42;13.50;99.90
39067;DHT22;24821;51.988;6.020;2023-03-13T07:16:11;13.40;99.90
39067;DHT22;24821;51.988;6.020;2023-03-13T07:18:37;13.40;99.90
39067;DHT22;24821;51.988;6.020;2023-03-13T07:21:06;13.50;99.90
39067;DHT22;24821;51.988;6.020;2023-03-13T07:23:33;13.50;99.90
39067;DHT22;24821;51.988;6.020;2023-03-13T07:26:01;13.60;99.90
39067;DHT22;24821;51.988;6.020;2023-03-13T07:28:28;13.60;99.90
39067;DHT22;24821;51.988;6.020;2023-03-13T07:31:01;13.60;99.90
39067;DHT22;24821;51.988;6.020;2023-03-13T07:33:27;13.60;99.90
39067;DHT22;24821;51.988;6.020;2023-03-13T07:35:52;13.70;99.90
39067;DHT22;24821;51.988;6.020;2023-03-13T07:38:19;13.70;99.90
39067;DHT22;24821;51.988;6.020;2023-03-13T07:40:49;13.80;99.90
39067;DHT22;24821;51.988;6.020;2023-03-13T07:43:15;13.70;99.90
39067;DHT22;24821;51.988;6.020;2023-03-13T07:46:03;13.80;99.90
39067;DHT22;24821;51.988;6.020;2023-03-13T07:48:33;13.80;99.90
39067;DHT22;24821;51.988;6.020;2023-03-13T07:50:59;13.80;99.90
39067;DHT22;24821;51.988;6.020;2023-03-13T07:53:25;13.80;99.90
39067;DHT22;24821;51.988;6.020;2023-03-13T07:58:29;13.90;99.90
39067;DHT22;24821;51.988;6.020;2023-03-13T08:00:55;13.90;99.90
39067;DHT22;24821;51.988;6.020;2023-03-13T08:03:21;13.90;99.90
39067;DHT22;24821;51.988;6.020;2023-03-13T08:05:56;13.90;99.90
39067;DHT22;24821;51.988;6.020;2023-03-13T08:08:21;13.90;99.90
39067;DHT22;24821;51.988;6.020;2023-03-13T08:10:47;13.90;99.90
39067;DHT22;24821;51.988;6.020;2023-03-13T08:13:12;13.90;99.90
39067;DHT22;24821;51.988;6.020;2023-03-13T08:15:38;13.80;99.90
39067;DHT22;24821;51.988;6.020;2023-03-13T08:18:03;13.80;99.90
39067;DHT22;24821;51.988;6.020;2023-03-13T08:20:29;13.80;99.90
39067;DHT22;24821;51.988;6.020;2023-03-13T08:22:55;13.70;99.90
39067;DHT22;24821;51.988;6.020;2023-03-13T08:25:21;13.70;99.90
39067;DHT22;24821;51.988;6.020;2023-03-13T08:27:47;13.70;99.90
39067;DHT22;24821;51.988;6.020;2023-03-13T08:30:12;13.70;99.90
39067;DHT22;24821;51.988;6.020;2023-03-13T08:32:38;13.80;99.90
39067;DHT22;24821;51.988;6.020;2023-03-13T08:35:04;14.00;99.90
39067;DHT22;24821;51.988;6.020;2023-03-13T08:37:29;14.10;99.90
39067;DHT22;24821;51.988;6.020;2023-03-13T08:39:55;14.30;99.90
39067;DHT22;24821;51.988;6.020;2023-03-13T08:42:22;14.30;99.90
39067;DHT22;24821;51.988;6.020;2023-03-13T08:44:47;14.50;99.90
39067;DHT22;24821;51.988;6.020;2023-03-13T08:47:13;14.40;99.90
39067;DHT22;24821;51.988;6.020;2023-03-13T08:49:39;14.40;99.90
39067;DHT22;24821;51.988;6.020;2023-03-13T08:52:05;14.30;99.90
39067;DHT22;24821;51.988;6.020;2023-03-13T08:54:31;14.20;99.90
39067;DHT22;24821;51.988;6.020;2023-03-13T08:56:56;14.20;99.90
39067;DHT22;24821;51.988;6.020;2023-03-13T08:59:24;14.30;99.90
39067;DHT22;24821;51.988;6.020;2023-03-13T09:01:50;14.30;99.90
39067;DHT22;24821;51.988;6.020;2023-03-13T09:04:15;14.40;99.90
39067;DHT22;24821;51.988;6.020;2023-03-13T09:06:41;14.50;99.90
39067;DHT22;24821;51.988;6.020;2023-03-13T09:09:09;14.50;99.90
39067;DHT22;24821;51.988;6.020;2023-03-13T09:11:36;14.60;99.90
39067;DHT22;24821;51.988;6.020;2023-03-13T09:14:02;14.60;99.90
39067;DHT22;24821;51.988;6.020;2023-03-13T09:16:29;14.70;99.90
39067;DHT22;24821;51.988;6.020;2023-03-13T09:18:56;14.70;99.90
39067;DHT22;24821;51.988;6.020;2023-03-13T09:21:27;14.80;99.90
39067;DHT22;24821;51.988;6.020;2023-03-13T09:23:53;14.80;99.90
39067;DHT22;24821;51.988;6.020;2023-03-13T09:26:19;14.80;99.90
39067;DHT22;24821;51.988;6.020;2023-03-13T09:28:46;14.90;99.90
39067;DHT22;24821;51.988;6.020;2023-03-13T09:31:13;14.90;99.90
39067;DHT22;24821;51.988;6.020;2023-03-13T09:33:40;14.90;99.90
39067;DHT22;24821;51.988;6.020;2023-03-13T09:36:07;14.90;99.90
39067;DHT22;24821;51.988;6.020;2023-03-13T09:38:34;14.90;99.90
39067;DHT22;24821;51.988;6.020;2023-03-13T09:41:26;15.00;99.90
39067;DHT22;24821;51.988;6.020;2023-03-13T09:49:22;15.20;99.90
39067;DHT22;24821;51.988;6.020;2023-03-13T09:51:57;15.30;99.90
39067;DHT22;24821;51.988;6.020;2023-03-13T10:07:29;15.40;99.90
39067;DHT22;24821;51.988;6.020;2023-03-13T10:09:55;15.30;99.90
39067;DHT22;24821;51.988;6.020;2023-03-13T10:12:30;15.30;99.90
39067;DHT22;24821;51.988;6.020;2023-03-13T10:15:41;15.30;99.90
39067;DHT22;24821;51.988;6.020;2023-03-13T10:18:18;15.40;99.90
39067;DHT22;24821;51.988;6.020;2023-03-13T10:20:48;15.30;99.90
39067;DHT22;24821;51.988;6.020;2023-03-13T10:23:38;15.40;99.90
39067;DHT22;24821;51.988;6.020;2023-03-13T10:26:05;15.40;99.90
39067;DHT22;24821;51.988;6.020;2023-03-13T10:28:33;15.40;99.90
39067;DHT22;24821;51.988;6.020;2023-03-13T10:31:13;15.60;99.90
39067;DHT22;24821;51.988;6.020;2023-03-13T10:33:42;15.80;99.90
39067;DHT22;24821;51.988;6.020;2023-03-13T10:36:12;15.80;99.90
39067;DHT22;24821;51.988;6.020;2023-03-13T10:38:50;15.90;99.90
39067;DHT22;24821;51.988;6.020;2023-03-13T10:41:30;15.90;99.90
39067;DHT22;24821;51.988;6.020;2023-03-13T10:44:01;15.90;99.90
39067;DHT22;24821;51.988;6.020;2023-03-13T10:46:33;16.00;99.90
39067;DHT22;24821;51.988;6.020;2023-03-13T10:49:02;15.90;99.90
39067;DHT22;24821;51.988;6.020;2023-03-13T10:51:38;15.90;99.90
39067;DHT22;24821;51.988;6.020;2023-03-13T10:54:17;15.90;99.90
39067;DHT22;24821;51.988;6.020;2023-03-13T10:56:46;16.00;99.90
39067;DHT22;24821;51.988;6.020;2023-03-13T10:59:19;16.10;99.90
39067;DHT22;24821;51.988;6.020;2023-03-13T11:01:46;16.20;99.90
39067;DHT22;24821;51.988;6.020;2023-03-13T11:07:16;16.20;99.90
39067;DHT22;24821;51.988;6.020;2023-03-13T11:09:57;16.30;99.90
39067;DHT22;24821;51.988;6.020;2023-03-13T11:12:23;16.30;99.90
39067;DHT22;24821;51.988;6.020;2023-03-13T11:14:58;16.30;99.90
39067;DHT22;24821;51.988;6.020;2023-03-13T11:17:35;16.40;99.90
39067;DHT22;24821;51.988;6.020;2023-03-13T11:20:26;16.40;99.90
39067;DHT22;24821;51.988;6.020;2023-03-13T11:23:09;16.50;99.90
39067;DHT22;24821;51.988;6.020;2023-03-13T11:26:01;16.60;99.90
39067;DHT22;24821;51.988;6.020;2023-03-13T11:31:38;16.80;99.90
39067;DHT22;24821;51.988;6.020;2023-03-13T11:34:34;16.80;99.90
39067;DHT22;24821;51.988;6.020;2023-03-13T11:37:14;16.90;99.90
39067;DHT22;24821;51.988;6.020;2023-03-13T11:48:35;17.00;99.90
39067;DHT22;24821;51.988;6.020;2023-03-13T11:56:42;17.30;99.90
39067;DHT22;24821;51.988;6.020;2023-03-13T12:01:52;17.40;99.90
39067;DHT22;24821;51.988;6.020;2023-03-13T12:04:36;17.40;99.90
39067;DHT22;24821;51.988;6.020;2023-03-13T12:07:41;17.50;99.90
39067;DHT22;24821;51.988;6.020;2023-03-13T12:10:14;17.60;99.90
39067;DHT22;24821;51.988;6.020;2023-03-13T12:13:02;17.60;99.90
39067;DHT22;24821;51.988;6.020;2023-03-13T12:15:40;17.60;99.90
39067;DHT22;24821;51.988;6.020;2023-03-13T12:18:17;17.70;99.90
39067;DHT22;24821;51.988;6.020;2023-03-13T12:20:52;17.70;99.60
39067;DHT22;24821;51.988;6.020;2023-03-13T12:26:18;17.90;98.40
39067;DHT22;24821;51.988;6.020;2023-03-13T12:37:11;17.70;99.00
39067;DHT22;24821;51.988;6.020;2023-03-13T12:42:54;17.90;98.40
39067;DHT22;24821;51.988;6.020;2023-03-13T12:45:22;18.10;96.90
39067;DHT22;24821;51.988;6.020;2023-03-13T12:51:01;18.20;97.10
39067;DHT22;24821;51.988;6.020;2023-03-13T12:56:50;18.20;96.90
39067;DHT22;24821;51.988;6.020;2023-03-13T13:01:53;18.00;97.80
39067;DHT22;24821;51.988;6.020;2023-03-13T13:04:22;18.00;97.60
39067;DHT22;24821;51.988;6.020;2023-03-13T13:06:58;17.90;98.30
39067;DHT22;24821;51.988;6.020;2023-03-13T13:09:34;17.90;98.20
39067;DHT22;24821;51.988;6.020;2023-03-13T13:12:22;17.90;98.00
39067;DHT22;24821;51.988;6.020;2023-03-13T13:17:34;17.90;97.90
39067;DHT22;24821;51.988;6.020;2023-03-13T13:20:42;17.90;98.20
39067;DHT22;24821;51.988;6.020;2023-03-13T13:25:50;17.90;97.80
39067;DHT22;24821;51.988;6.020;2023-03-13T13:30:46;17.90;98.30
39067;DHT22;24821;51.988;6.020;2023-03-13T13:35:45;18.00;98.60
39067;DHT22;24821;51.988;6.020;2023-03-13T13:41:06;17.90;98.10
39067;DHT22;24821;51.988;6.020;2023-03-13T13:43:48;17.80;98.60
39067;DHT22;24821;51.988;6.020;2023-03-13T13:46:27;17.90;98.70
39067;DHT22;24821;51.988;6.020;2023-03-13T13:51:39;18.00;96.60
39067;DHT22;24821;51.988;6.020;2023-03-13T13:56:40;17.80;96.10
39067;DHT22;24821;51.988;6.020;2023-03-13T14:02:04;17.70;94.30
39067;DHT22;24821;51.988;6.020;2023-03-13T14:04:45;17.50;93.80
39067;DHT22;24821;51.988;6.020;2023-03-13T14:07:40;17.40;94.10
39067;DHT22;24821;51.988;6.020;2023-03-13T14:10:47;17.40;93.90
39067;DHT22;24821;51.988;6.020;2023-03-13T14:13:20;17.40;93.70
39067;DHT22;24821;51.988;6.020;2023-03-13T14:15:48;17.50;94.30
39067;DHT22;24821;51.988;6.020;2023-03-13T14:18:23;17.50;93.60
39067;DHT22;24821;51.988;6.020;2023-03-13T14:21:05;17.50;93.70
39067;DHT22;24821;51.988;6.020;2023-03-13T14:23:45;17.60;93.70
39067;DHT22;24821;51.988;6.020;2023-03-13T14:26:19;17.60;94.20
39067;DHT22;24821;51.988;6.020;2023-03-13T14:28:51;17.70;94.50
39067;DHT22;24821;51.988;6.020;2023-03-13T14:33:47;17.70;93.60
39067;DHT22;24821;51.988;6.020;2023-03-13T14:36:13;17.60;93.60
39067;DHT22;24821;51.988;6.020;2023-03-13T14:38:38;17.70;93.80
39067;DHT22;24821;51.988;6.020;2023-03-13T14:41:28;17.70;94.20
39067;DHT22;24821;51.988;6.020;2023-03-13T14:43:54;17.60;93.80
39067;DHT22;24821;51.988;6.020;2023-03-13T14:46:30;17.60;94.20
39067;DHT22;24821;51.988;6.020;2023-03-13T14:49:04;17.70;94.20
39067;DHT22;24821;51.988;6.020;2023-03-13T14:51:30;17.60;94.20
39067;DHT22;24821;51.988;6.020;2023-03-13T14:53:58;17.60;94.60
39067;DHT22;24821;51.988;6.020;2023-03-13T14:56:36;17.50;94.80
39067;DHT22;24821;51.988;6.020;2023-03-13T14:59:07;17.50;94.50
39067;DHT22;24821;51.988;6.020;2023-03-13T15:01:33;17.40;94.70
39067;DHT22;24821;51.988;6.020;2023-03-13T15:03:58;17.40;94.80
39067;DHT22;24821;51.988;6.020;2023-03-13T15:06:25;17.40;95.20
39067;DHT22;24821;51.988;6.020;2023-03-13T15:11:37;17.40;94.50
39067;DHT22;24821;51.988;6.020;2023-03-13T15:17:22;17.30;95.00
39067;DHT22;24821;51.988;6.020;2023-03-13T15:19:50;17.30;94.90
39067;DHT22;24821;51.988;6.020;2023-03-13T15:22:16;17.20;94.80
39067;DHT22;24821;51.988;6.020;2023-03-13T15:24:42;17.10;94.50
39067;DHT22;24821;51.988;6.020;2023-03-13T15:27:19;17.20;95.00
39067;DHT22;24821;51.988;6.020;2023-03-13T15:29:45;17.20;95.60
39067;DHT22;24821;51.988;6.020;2023-03-13T15:32:18;17.20;95.90
39067;DHT22;24821;51.988;6.020;2023-03-13T15:34:46;17.20;95.90
39067;DHT22;24821;51.988;6.020;2023-03-13T15:37:12;17.10;95.10
39067;DHT22;24821;51.988;6.020;2023-03-13T15:39:38;17.10;95.20
39067;DHT22;24821;51.988;6.020;2023-03-13T15:42:04;17.10;95.20
39067;DHT22;24821;51.988;6.020;2023-03-13T15:44:29;17.00;95.80
39067;DHT22;24821;51.988;6.020;2023-03-13T15:46:55;17.00;96.00
39067;DHT22;24821;51.988;6.020;2023-03-13T15:49:20;16.90;96.00
39067;DHT22;24821;51.988;6.020;2023-03-13T15:51:46;16.90;96.40
39067;DHT22;24821;51.988;6.020;2023-03-13T15:54:12;16.80;96.70
39067;DHT22;24821;51.988;6.020;2023-03-13T15:56:37;16.80;96.30
39067;DHT22;24821;51.988;6.020;2023-03-13T15:59:10;16.80;96.40
39067;DHT22;24821;51.988;6.020;2023-03-13T16:01:37;16.80;96.60
39067;DHT22;24821;51.988;6.020;2023-03-13T16:04:03;16.70;96.50
39067;DHT22;24821;51.988;6.020;2023-03-13T16:06:28;16.80;96.60
39067;DHT22;24821;51.988;6.020;2023-03-13T16:08:58;16.70;96.90
39067;DHT22;24821;51.988;6.020;2023-03-13T16:11:27;16.70;96.90
39067;DHT22;24821;51.988;6.020;2023-03-13T16:13:53;16.60;96.70
39067;DHT22;24821;51.988;6.020;2023-03-13T16:16:25;16.60;96.70
39067;DHT22;24821;51.988;6.020;2023-03-13T16:18:53;16.60;96.90
39067;DHT22;24821;51.988;6.020;2023-03-13T16:21:30;16.60;96.90
39067;DHT22;24821;51.988;6.020;2023-03-13T16:23:56;16.50;96.50
39067;DHT22;24821;51.988;6.020;2023-03-13T16:26:27;16.50;96.50
39067;DHT22;24821;51.988;6.020;2023-03-13T16:28:53;16.50;96.80
39067;DHT22;24821;51.988;6.020;2023-03-13T16:31:21;16.40;97.20
39067;DHT22;24821;51.988;6.020;2023-03-13T16:33:48;16.40;97.20
39067;DHT22;24821;51.988;6.020;2023-03-13T16:36:21;16.40;97.20
39067;DHT22;24821;51.988;6.020;2023-03-13T16:38:47;16.40;97.40
39067;DHT22;24821;51.988;6.020;2023-03-13T16:41:16;16.30;97.60
39067;DHT22;24821;51.988;6.020;2023-03-13T16:43:42;16.30;97.60
39067;DHT22;24821;51.988;6.020;2023-03-13T16:46:20;16.30;97.90
39067;DHT22;24821;51.988;6.020;2023-03-13T16:48:46;16.30;98.00
39067;DHT22;24821;51.988;6.020;2023-03-13T16:51:21;16.20;97.90
39067;DHT22;24821;51.988;6.020;2023-03-13T16:53:48;16.30;98.00
39067;DHT22;24821;51.988;6.020;2023-03-13T16:58:46;16.10;98.30
39067;DHT22;24821;51.988;6.020;2023-03-13T17:01:12;16.10;98.20
39067;DHT22;24821;51.988;6.020;2023-03-13T17:03:37;16.00;98.40
39067;DHT22;24821;51.988;6.020;2023-03-13T17:06:04;16.00;98.60
39067;DHT22;24821;51.988;6.020;2023-03-13T17:08:30;15.90;98.60
39067;DHT22;24821;51.988;6.020;2023-03-13T17:10:55;15.90;98.80
39067;DHT22;24821;51.988;6.020;2023-03-13T17:13:21;15.80;99.00
39067;DHT22;24821;51.988;6.020;2023-03-13T17:15:48;15.70;98.90
39067;DHT22;24821;51.988;6.020;2023-03-13T17:18:14;15.60;99.10
39067;DHT22;24821;51.988;6.020;2023-03-13T17:20:40;15.50;99.30
39067;DHT22;24821;51.988;6.020;2023-03-13T17:23:05;15.40;99.40